PWSweather.com
Personal Weather Stations
Station Observations
SELSTON
Bracken House, Selston NottinghamGB NG16 6AN

Bracken HouseSelston NottinghamGB NG16 6AN

Lat: 53.070642, Lon: -1.2933

Elevation: 426

Station Type: Davis Vantage Pro 2

http://www.selstonweather.info

Latest ConditionsUpdated 8:51:15 PM GMT Friday, May 25, 2018
Currently Today's Max Today's Min Today's Average
Temperature 54.7°F12.6°C 55.9°F13.3°C 49.6°F9.8°C 53.0°F11.7°C
Dew Point 53.6°F12.0°C 54.5°F12.5°C 47.4°F8.6°C 51.2°F10.7°C
Winds 5.0 mph NNE8.0 kmh NNE 11.0 mph N17.7 kmh N - 2.2 mph 3.5 kmh
Wind Gusts 10.0 mph16.1 kmh 18.0 mph29.0 kmh - -
Humidity 96% 96% 88% 94%
Pressure 30.13 in1020.3 mb 30.13 in1020.3 mb 30.05 in1017.6 mb -
Precipitation - 0.27 in6.9 mm - -
Hour Temp Dew Point Humidity Winds Wind Gusts Pressure Precip Precip Rate Daily Precip Total
08:51 PM 54.7°F12.6°C 53.6°F12.0°C 96% 5.0 mph NNE8.0 kmh NNE 10.0 mph16.1 kmh 30.13 in1020.3 mb 0.00 in0.0 mm 0.00 in0.0 mm 0.27 in6.9 mm
08:46 PM 54.8°F12.7°C 53.7°F12.1°C 96% 1.0 mph NE1.6 kmh NE 8.0 mph12.9 kmh 30.12 in1020.0 mb 0.00 in0.0 mm 0.00 in0.0 mm 0.27 in6.9 mm
08:41 PM 54.8°F12.7°C 53.7°F12.1°C 96% 1.0 mph NE1.6 kmh NE 8.0 mph12.9 kmh 30.12 in1020.0 mb 0.00 in0.0 mm 0.00 in0.0 mm 0.27 in6.9 mm
08:36 PM 54.9°F12.7°C 53.5°F11.9°C 95% 4.0 mph 6.4 kmh 8.0 mph12.9 kmh 30.12 in1020.0 mb 0.00 in0.0 mm 0.00 in0.0 mm 0.27 in6.9 mm
08:31 PM 54.9°F12.7°C 53.5°F11.9°C 95% 2.0 mph NE3.2 kmh NE 7.0 mph11.3 kmh 30.12 in1020.0 mb 0.00 in0.0 mm 0.00 in0.0 mm 0.27 in6.9 mm
08:26 PM 54.9°F12.7°C 53.5°F11.9°C 95% Calm Calm 6.0 mph9.7 kmh 30.12 in1020.0 mb 0.00 in0.0 mm 0.00 in0.0 mm 0.27 in6.9 mm
08:21 PM 55.0°F12.8°C 53.6°F12.0°C 95% Calm Calm 6.0 mph9.7 kmh 30.12 in1020.0 mb 0.00 in0.0 mm 0.00 in0.0 mm 0.27 in6.9 mm
08:16 PM 55.0°F12.8°C 53.6°F12.0°C 95% 3.0 mph NE4.8 kmh NE 6.0 mph9.7 kmh 30.12 in1020.0 mb 0.00 in0.0 mm 0.00 in0.0 mm 0.27 in6.9 mm
08:11 PM 55.0°F12.8°C 53.6°F12.0°C 95% 5.0 mph NE8.0 kmh NE 6.0 mph9.7 kmh 30.12 in1020.0 mb 0.00 in0.0 mm 0.00 in0.0 mm 0.27 in6.9 mm
08:06 PM 55.1°F12.8°C 53.7°F12.1°C 95% 1.0 mph NE1.6 kmh NE 6.0 mph9.7 kmh 30.12 in1020.0 mb 0.00 in0.0 mm 0.00 in0.0 mm 0.27 in6.9 mm
08:01 PM 55.1°F12.8°C 53.7°F12.1°C 95% Calm Calm 9.0 mph14.5 kmh 30.11 in1019.6 mb 0.00 in0.0 mm 0.00 in0.0 mm 0.27 in6.9 mm
07:56 PM 55.2°F12.9°C 53.8°F12.1°C 95% 1.0 mph NE1.6 kmh NE 9.0 mph14.5 kmh 30.11 in1019.6 mb 0.00 in0.0 mm 0.00 in0.0 mm 0.27 in6.9 mm
07:51 PM 55.2°F12.9°C 53.8°F12.1°C 95% Calm Calm 9.0 mph14.5 kmh 30.11 in1019.6 mb 0.00 in0.0 mm 0.00 in0.0 mm 0.27 in6.9 mm
07:46 PM 55.2°F12.9°C 53.8°F12.1°C 95% Calm Calm 9.0 mph14.5 kmh 30.11 in1019.6 mb 0.00 in0.0 mm 0.00 in0.0 mm 0.27 in6.9 mm
07:41 PM 55.3°F12.9°C 53.9°F12.2°C 95% 8.0 mph NE12.9 kmh NE 9.0 mph14.5 kmh 30.11 in1019.6 mb 0.00 in0.0 mm 0.00 in0.0 mm 0.27 in6.9 mm
07:36 PM 55.3°F12.9°C 53.9°F12.2°C 95% 5.0 mph NNE8.0 kmh NNE 7.0 mph11.3 kmh 30.11 in1019.6 mb 0.00 in0.0 mm 0.00 in0.0 mm 0.27 in6.9 mm
07:31 PM 55.3°F12.9°C 53.9°F12.2°C 95% 2.0 mph 3.2 kmh 7.0 mph11.3 kmh 30.11 in1019.6 mb 0.00 in0.0 mm 0.00 in0.0 mm 0.27 in6.9 mm
07:26 PM 55.3°F12.9°C 53.9°F12.2°C 95% 3.0 mph NNE4.8 kmh NNE 7.0 mph11.3 kmh 30.11 in1019.6 mb 0.00 in0.0 mm 0.00 in0.0 mm 0.27 in6.9 mm
07:21 PM 55.3°F12.9°C 53.9°F12.2°C 95% 1.0 mph NNE1.6 kmh NNE 7.0 mph11.3 kmh 30.10 in1019.3 mb 0.00 in0.0 mm 0.00 in0.0 mm 0.27 in6.9 mm
07:16 PM 55.3°F12.9°C 53.9°F12.2°C 95% Calm Calm 6.0 mph9.7 kmh 30.10 in1019.3 mb 0.00 in0.0 mm 0.00 in0.0 mm 0.27 in6.9 mm
07:11 PM 55.3°F12.9°C 53.9°F12.2°C 95% Calm Calm 2.0 mph3.2 kmh 30.10 in1019.3 mb 0.00 in0.0 mm 0.00 in0.0 mm 0.27 in6.9 mm
07:06 PM 55.3°F12.9°C 53.9°F12.2°C 95% 1.0 mph NE1.6 kmh NE 5.0 mph8.0 kmh 30.10 in1019.3 mb 0.00 in0.0 mm 0.00 in0.0 mm 0.27 in6.9 mm
07:01 PM 55.2°F12.9°C 53.8°F12.1°C 95% Calm Calm 5.0 mph8.0 kmh 30.09 in1019.0 mb 0.00 in0.0 mm 0.00 in0.0 mm 0.27 in6.9 mm
06:56 PM 55.2°F12.9°C 53.8°F12.1°C 95% Calm Calm 8.0 mph12.9 kmh 30.09 in1019.0 mb 0.00 in0.0 mm 0.00 in0.0 mm 0.27 in6.9 mm
06:51 PM 55.2°F12.9°C 53.8°F12.1°C 95% Calm Calm 5.0 mph8.0 kmh 30.09 in1019.0 mb 0.00 in0.0 mm 0.00 in0.0 mm 0.27 in6.9 mm
06:46 PM 55.2°F12.9°C 53.8°F12.1°C 95% 1.0 mph NNE1.6 kmh NNE 4.0 mph6.4 kmh 30.10 in1019.3 mb 0.00 in0.0 mm 0.00 in0.0 mm 0.27 in6.9 mm
06:41 PM 55.2°F12.9°C 53.8°F12.1°C 95% Calm Calm 1.0 mph1.6 kmh 30.09 in1019.0 mb 0.00 in0.0 mm 0.00 in0.0 mm 0.27 in6.9 mm
06:36 PM 55.1°F12.8°C 53.7°F12.1°C 95% Calm Calm 7.0 mph11.3 kmh 30.09 in1019.0 mb 0.00 in0.0 mm 0.00 in0.0 mm 0.27 in6.9 mm
06:31 PM 55.1°F12.8°C 53.7°F12.1°C 95% 2.0 mph NE3.2 kmh NE 5.0 mph8.0 kmh 30.09 in1019.0 mb 0.00 in0.0 mm 0.00 in0.0 mm 0.27 in6.9 mm
06:26 PM 55.0°F12.8°C 53.6°F12.0°C 95% Calm Calm -- 30.09 in1019.0 mb 0.00 in0.0 mm 0.00 in0.0 mm 0.27 in6.9 mm
06:21 PM 55.0°F12.8°C 53.6°F12.0°C 95% Calm Calm -- 30.09 in1019.0 mb 0.00 in0.0 mm 0.00 in0.0 mm 0.27 in6.9 mm
06:16 PM 55.0°F12.8°C 53.6°F12.0°C 95% Calm Calm 8.0 mph12.9 kmh 30.09 in1019.0 mb 0.00 in0.0 mm 0.00 in0.0 mm 0.27 in6.9 mm
06:11 PM 54.9°F12.7°C 53.5°F11.9°C 95% 1.0 mph NE1.6 kmh NE 8.0 mph12.9 kmh 30.09 in1019.0 mb 0.00 in0.0 mm 0.00 in0.0 mm 0.27 in6.9 mm
06:06 PM 54.9°F12.7°C 53.5°F11.9°C 95% Calm Calm 4.0 mph6.4 kmh 30.09 in1019.0 mb 0.00 in0.0 mm 0.00 in0.0 mm 0.27 in6.9 mm
06:01 PM 54.9°F12.7°C 53.5°F11.9°C 95% Calm Calm 3.0 mph4.8 kmh 30.09 in1019.0 mb 0.00 in0.0 mm 0.00 in0.0 mm 0.27 in6.9 mm
05:56 PM 54.8°F12.7°C 53.4°F11.9°C 95% Calm Calm 7.0 mph11.3 kmh 30.09 in1019.0 mb 0.00 in0.0 mm 0.00 in0.0 mm 0.27 in6.9 mm
05:51 PM 54.8°F12.7°C 53.4°F11.9°C 95% 1.0 mph N1.6 kmh N 7.0 mph11.3 kmh 30.09 in1019.0 mb 0.00 in0.0 mm 0.00 in0.0 mm 0.27 in6.9 mm
05:46 PM 54.9°F12.7°C 53.5°F11.9°C 95% 4.0 mph NNE6.4 kmh NNE 7.0 mph11.3 kmh 30.09 in1019.0 mb 0.00 in0.0 mm 0.00 in0.0 mm 0.27 in6.9 mm
05:41 PM 55.0°F12.8°C 53.6°F12.0°C 95% 3.0 mph NNE4.8 kmh NNE 7.0 mph11.3 kmh 30.09 in1019.0 mb 0.00 in0.0 mm 0.00 in0.0 mm 0.27 in6.9 mm
05:36 PM 55.0°F12.8°C 53.6°F12.0°C 95% Calm Calm 7.0 mph11.3 kmh 30.09 in1019.0 mb 0.00 in0.0 mm 0.00 in0.0 mm 0.27 in6.9 mm
05:31 PM 55.1°F12.8°C 53.7°F12.1°C 95% Calm Calm 6.0 mph9.7 kmh 30.09 in1019.0 mb 0.00 in0.0 mm 0.00 in0.0 mm 0.27 in6.9 mm
05:26 PM 55.1°F12.8°C 53.7°F12.1°C 95% 2.0 mph NNE3.2 kmh NNE 3.0 mph4.8 kmh 30.08 in1018.6 mb 0.00 in0.0 mm 0.00 in0.0 mm 0.27 in6.9 mm
05:21 PM 55.1°F12.8°C 53.7°F12.1°C 95% 2.0 mph NNE3.2 kmh NNE 6.0 mph9.7 kmh 30.08 in1018.6 mb 0.00 in0.0 mm 0.00 in0.0 mm 0.27 in6.9 mm
05:16 PM 55.1°F12.8°C 53.7°F12.1°C 95% 3.0 mph NE4.8 kmh NE 3.0 mph4.8 kmh 30.08 in1018.6 mb 0.00 in0.0 mm 0.00 in0.0 mm 0.27 in6.9 mm
05:11 PM 55.1°F12.8°C 53.7°F12.1°C 95% 3.0 mph NE4.8 kmh NE 6.0 mph9.7 kmh 30.08 in1018.6 mb 0.00 in0.0 mm 0.00 in0.0 mm 0.27 in6.9 mm
05:06 PM 55.2°F12.9°C 53.8°F12.1°C 95% Calm Calm -- 30.08 in1018.6 mb 0.00 in0.0 mm 0.00 in0.0 mm 0.27 in6.9 mm
05:01 PM 55.3°F12.9°C 53.9°F12.2°C 95% Calm Calm 3.0 mph4.8 kmh 30.08 in1018.6 mb 0.00 in0.0 mm 0.00 in0.0 mm 0.27 in6.9 mm
04:56 PM 55.3°F12.9°C 53.9°F12.2°C 95% Calm Calm 2.0 mph3.2 kmh 30.08 in1018.6 mb 0.00 in0.0 mm 0.00 in0.0 mm 0.27 in6.9 mm
04:51 PM 55.3°F12.9°C 53.9°F12.2°C 95% 1.0 mph NNE1.6 kmh NNE 10.0 mph16.1 kmh 30.08 in1018.6 mb 0.00 in0.0 mm 0.00 in0.0 mm 0.27 in6.9 mm
04:46 PM 55.3°F12.9°C 53.9°F12.2°C 95% Calm Calm 10.0 mph16.1 kmh 30.08 in1018.6 mb 0.00 in0.0 mm 0.00 in0.0 mm 0.27 in6.9 mm
04:41 PM 55.3°F12.9°C 53.9°F12.2°C 95% Calm Calm 10.0 mph16.1 kmh 30.08 in1018.6 mb 0.00 in0.0 mm 0.00 in0.0 mm 0.27 in6.9 mm
04:36 PM 55.4°F13.0°C 54.0°F12.2°C 95% 2.0 mph NE3.2 kmh NE 6.0 mph9.7 kmh 30.08 in1018.6 mb 0.00 in0.0 mm 0.00 in0.0 mm 0.27 in6.9 mm
04:31 PM 55.3°F12.9°C 53.9°F12.2°C 95% 4.0 mph NE6.4 kmh NE 9.0 mph14.5 kmh 30.08 in1018.6 mb 0.00 in0.0 mm 0.00 in0.0 mm 0.27 in6.9 mm
04:26 PM 55.4°F13.0°C 54.0°F12.2°C 95% 1.0 mph NE1.6 kmh NE 9.0 mph14.5 kmh 30.08 in1018.6 mb 0.00 in0.0 mm 0.00 in0.0 mm 0.27 in6.9 mm
04:21 PM 55.5°F13.1°C 54.1°F12.3°C 95% 3.0 mph NE4.8 kmh NE 5.0 mph8.0 kmh 30.08 in1018.6 mb 0.00 in0.0 mm 0.00 in0.0 mm 0.27 in6.9 mm
04:16 PM 55.5°F13.1°C 54.1°F12.3°C 95% Calm Calm 5.0 mph8.0 kmh 30.08 in1018.6 mb 0.00 in0.0 mm 0.00 in0.0 mm 0.27 in6.9 mm
04:11 PM 55.4°F13.0°C 54.0°F12.2°C 95% 2.0 mph NE3.2 kmh NE 9.0 mph14.5 kmh 30.08 in1018.6 mb 0.00 in0.0 mm 0.00 in0.0 mm 0.27 in6.9 mm
04:06 PM 55.5°F13.1°C 54.1°F12.3°C 95% 8.0 mph E12.9 kmh E 9.0 mph14.5 kmh 30.08 in1018.6 mb 0.00 in0.0 mm 0.00 in0.0 mm 0.27 in6.9 mm
04:01 PM 55.6°F13.1°C 54.2°F12.3°C 95% 3.0 mph NE4.8 kmh NE 5.0 mph8.0 kmh 30.08 in1018.6 mb 0.00 in0.0 mm 0.00 in0.0 mm 0.27 in6.9 mm
03:56 PM 55.6°F13.1°C 54.2°F12.3°C 95% Calm Calm 4.0 mph6.4 kmh 30.08 in1018.6 mb 0.00 in0.0 mm 0.00 in0.0 mm 0.27 in6.9 mm
03:51 PM 55.6°F13.1°C 54.2°F12.3°C 95% Calm Calm 7.0 mph11.3 kmh 30.08 in1018.6 mb 0.00 in0.0 mm 0.00 in0.0 mm 0.27 in6.9 mm
03:46 PM 55.5°F13.1°C 54.1°F12.3°C 95% Calm Calm 7.0 mph11.3 kmh 30.08 in1018.6 mb 0.00 in0.0 mm 0.00 in0.0 mm 0.27 in6.9 mm
03:41 PM 55.4°F13.0°C 54.0°F12.2°C 95% 7.0 mph NE11.3 kmh NE 7.0 mph11.3 kmh 30.08 in1018.6 mb 0.00 in0.0 mm 0.00 in0.0 mm 0.27 in6.9 mm
03:36 PM 55.4°F13.0°C 54.0°F12.2°C 95% 1.0 mph E1.6 kmh E 7.0 mph11.3 kmh 30.08 in1018.6 mb 0.00 in0.0 mm 0.00 in0.0 mm 0.27 in6.9 mm
03:31 PM 55.4°F13.0°C 54.0°F12.2°C 95% 1.0 mph NE1.6 kmh NE 7.0 mph11.3 kmh 30.08 in1018.6 mb 0.00 in0.0 mm 0.00 in0.0 mm 0.27 in6.9 mm
03:26 PM 55.6°F13.1°C 54.2°F12.3°C 95% 2.0 mph NNE3.2 kmh NNE 4.0 mph6.4 kmh 30.07 in1018.3 mb 0.00 in0.0 mm 0.00 in0.0 mm 0.27 in6.9 mm
03:21 PM 55.5°F13.1°C 54.1°F12.3°C 95% Calm Calm -- 30.07 in1018.3 mb 0.00 in0.0 mm 0.00 in0.0 mm 0.27 in6.9 mm
03:16 PM 55.4°F13.0°C 54.0°F12.2°C 95% Calm Calm 10.0 mph16.1 kmh 30.07 in1018.3 mb 0.00 in0.0 mm 0.00 in0.0 mm 0.27 in6.9 mm
03:11 PM 55.4°F13.0°C 54.0°F12.2°C 95% 1.0 mph ESE1.6 kmh ESE 10.0 mph16.1 kmh 30.07 in1018.3 mb 0.00 in0.0 mm 0.00 in0.0 mm 0.27 in6.9 mm
03:06 PM 55.4°F13.0°C 54.0°F12.2°C 95% 3.0 mph NE4.8 kmh NE 10.0 mph16.1 kmh 30.07 in1018.3 mb 0.00 in0.0 mm 0.00 in0.0 mm 0.27 in6.9 mm
03:01 PM 55.6°F13.1°C 54.2°F12.3°C 95% 3.0 mph E4.8 kmh E 7.0 mph11.3 kmh 30.07 in1018.3 mb 0.00 in0.0 mm 0.00 in0.0 mm 0.27 in6.9 mm
02:56 PM 55.8°F13.2°C 54.4°F12.4°C 95% 1.0 mph ENE1.6 kmh ENE 7.0 mph11.3 kmh 30.07 in1018.3 mb 0.00 in0.0 mm 0.00 in0.0 mm 0.27 in6.9 mm
02:51 PM 55.9°F13.3°C 54.5°F12.5°C 95% Calm Calm 7.0 mph11.3 kmh 30.07 in1018.3 mb 0.00 in0.0 mm 0.00 in0.0 mm 0.27 in6.9 mm
02:46 PM 55.8°F13.2°C 54.4°F12.4°C 95% 1.0 mph NNE1.6 kmh NNE 1.0 mph1.6 kmh 30.07 in1018.3 mb 0.00 in0.0 mm 0.00 in0.0 mm 0.27 in6.9 mm
02:41 PM 55.7°F13.2°C 54.3°F12.4°C 95% Calm Calm 12.0 mph19.3 kmh 30.07 in1018.3 mb 0.00 in0.0 mm 0.00 in0.0 mm 0.27 in6.9 mm
02:36 PM 55.8°F13.2°C 54.4°F12.4°C 95% 5.0 mph N8.0 kmh N 12.0 mph19.3 kmh 30.07 in1018.3 mb 0.00 in0.0 mm 0.00 in0.0 mm 0.27 in6.9 mm
02:31 PM 55.8°F13.2°C 54.4°F12.4°C 95% Calm Calm 11.0 mph17.7 kmh 30.07 in1018.3 mb 0.00 in0.0 mm 0.00 in0.0 mm 0.27 in6.9 mm
02:26 PM 55.7°F13.2°C 54.3°F12.4°C 95% 3.0 mph E4.8 kmh E 11.0 mph17.7 kmh 30.07 in1018.3 mb 0.00 in0.0 mm 0.00 in0.0 mm 0.27 in6.9 mm
02:21 PM 55.7°F13.2°C 54.3°F12.4°C 95% 3.0 mph N4.8 kmh N 11.0 mph17.7 kmh 30.07 in1018.3 mb 0.00 in0.0 mm 0.00 in0.0 mm 0.27 in6.9 mm
02:16 PM 55.5°F13.1°C 54.1°F12.3°C 95% 4.0 mph N6.4 kmh N 11.0 mph17.7 kmh 30.07 in1018.3 mb 0.00 in0.0 mm 0.00 in0.0 mm 0.27 in6.9 mm
02:11 PM 55.4°F13.0°C 53.7°F12.1°C 94% 6.0 mph NNE9.7 kmh NNE 9.0 mph14.5 kmh 30.07 in1018.3 mb 0.00 in0.0 mm 0.00 in0.0 mm 0.27 in6.9 mm
02:06 PM 55.4°F13.0°C 53.7°F12.1°C 94% 2.0 mph NE3.2 kmh NE 9.0 mph14.5 kmh 30.07 in1018.3 mb 0.00 in0.0 mm 0.00 in0.0 mm 0.27 in6.9 mm
02:01 PM 55.4°F13.0°C 53.7°F12.1°C 94% 2.0 mph NNE3.2 kmh NNE 10.0 mph16.1 kmh 30.07 in1018.3 mb 0.00 in0.0 mm 0.00 in0.0 mm 0.27 in6.9 mm
01:56 PM 55.4°F13.0°C 53.7°F12.1°C 94% 3.0 mph E4.8 kmh E 10.0 mph16.1 kmh 30.07 in1018.3 mb 0.00 in0.0 mm 0.00 in0.0 mm 0.27 in6.9 mm
01:51 PM 55.5°F13.1°C 53.8°F12.1°C 94% 2.0 mph NE3.2 kmh NE 12.0 mph19.3 kmh 30.07 in1018.3 mb 0.00 in0.0 mm 0.00 in0.0 mm 0.27 in6.9 mm
01:46 PM 55.5°F13.1°C 53.8°F12.1°C 94% Calm Calm 12.0 mph19.3 kmh 30.06 in1017.9 mb 0.00 in0.0 mm 0.00 in0.0 mm 0.27 in6.9 mm
01:41 PM 55.4°F13.0°C 53.7°F12.1°C 94% 1.0 mph ENE1.6 kmh ENE 12.0 mph19.3 kmh 30.07 in1018.3 mb 0.00 in0.0 mm 0.00 in0.0 mm 0.27 in6.9 mm
01:36 PM 55.3°F12.9°C 53.6°F12.0°C 94% 2.0 mph NE3.2 kmh NE 12.0 mph19.3 kmh 30.07 in1018.3 mb 0.00 in0.0 mm 0.00 in0.0 mm 0.27 in6.9 mm
01:31 PM 55.2°F12.9°C 53.8°F12.1°C 95% Calm Calm 9.0 mph14.5 kmh 30.07 in1018.3 mb 0.00 in0.0 mm 0.00 in0.0 mm 0.27 in6.9 mm
01:26 PM 55.1°F12.8°C 53.7°F12.1°C 95% 3.0 mph NE4.8 kmh NE 10.0 mph16.1 kmh 30.07 in1018.3 mb 0.00 in0.0 mm 0.00 in0.0 mm 0.27 in6.9 mm
01:21 PM 55.0°F12.8°C 53.6°F12.0°C 95% 2.0 mph NE3.2 kmh NE 10.0 mph16.1 kmh 30.07 in1018.3 mb 0.00 in0.0 mm 0.00 in0.0 mm 0.27 in6.9 mm
01:16 PM 54.9°F12.7°C 53.5°F11.9°C 95% 3.0 mph NE4.8 kmh NE 10.0 mph16.1 kmh 30.07 in1018.3 mb 0.00 in0.0 mm 0.00 in0.0 mm 0.27 in6.9 mm
01:11 PM 54.8°F12.7°C 53.1°F11.7°C 94% 2.0 mph NE3.2 kmh NE 10.0 mph16.1 kmh 30.07 in1018.3 mb 0.00 in0.0 mm 0.00 in0.0 mm 0.27 in6.9 mm
01:06 PM 54.8°F12.7°C 53.1°F11.7°C 94% 2.0 mph NE3.2 kmh NE 8.0 mph12.9 kmh 30.06 in1017.9 mb 0.00 in0.0 mm 0.00 in0.0 mm 0.27 in6.9 mm
01:01 PM 54.7°F12.6°C 53.0°F11.7°C 94% 4.0 mph N6.4 kmh N 8.0 mph12.9 kmh 30.06 in1017.9 mb 0.00 in0.0 mm 0.00 in0.0 mm 0.27 in6.9 mm
12:56 PM 54.7°F12.6°C 53.0°F11.7°C 94% Calm Calm 11.0 mph17.7 kmh 30.06 in1017.9 mb 0.00 in0.0 mm 0.00 in0.0 mm 0.27 in6.9 mm
12:51 PM 54.7°F12.6°C 53.0°F11.7°C 94% Calm Calm 11.0 mph17.7 kmh 30.06 in1017.9 mb 0.00 in0.0 mm 0.00 in0.0 mm 0.27 in6.9 mm
12:46 PM 54.8°F12.7°C 53.1°F11.7°C 94% 5.0 mph NE8.0 kmh NE 13.0 mph20.9 kmh 30.05 in1017.6 mb 0.00 in0.0 mm 0.00 in0.0 mm 0.27 in6.9 mm
12:41 PM 54.7°F12.6°C 53.0°F11.7°C 94% Calm Calm 13.0 mph20.9 kmh 30.06 in1017.9 mb 0.00 in0.0 mm 0.00 in0.0 mm 0.27 in6.9 mm
12:36 PM 54.7°F12.6°C 53.0°F11.7°C 94% 2.0 mph NE3.2 kmh NE 13.0 mph20.9 kmh 30.06 in1017.9 mb 0.00 in0.0 mm 0.00 in0.0 mm 0.27 in6.9 mm
12:31 PM 54.8°F12.7°C 53.1°F11.7°C 94% 7.0 mph NNE11.3 kmh NNE 13.0 mph20.9 kmh 30.05 in1017.6 mb 0.00 in0.0 mm 0.00 in0.0 mm 0.27 in6.9 mm
12:26 PM 54.7°F12.6°C 53.0°F11.7°C 94% Calm Calm 10.0 mph16.1 kmh 30.05 in1017.6 mb 0.00 in0.0 mm 0.00 in0.0 mm 0.27 in6.9 mm
12:21 PM 54.7°F12.6°C 53.0°F11.7°C 94% 4.0 mph NNE6.4 kmh NNE 9.0 mph14.5 kmh 30.06 in1017.9 mb 0.00 in0.0 mm 0.00 in0.0 mm 0.27 in6.9 mm
12:16 PM 54.7°F12.6°C 53.0°F11.7°C 94% 2.0 mph NE3.2 kmh NE 12.0 mph19.3 kmh 30.06 in1017.9 mb 0.00 in0.0 mm 0.00 in0.0 mm 0.27 in6.9 mm
12:11 PM 54.6°F12.6°C 52.9°F11.6°C 94% 4.0 mph NNE6.4 kmh NNE 12.0 mph19.3 kmh 30.06 in1017.9 mb 0.00 in0.0 mm 0.00 in0.0 mm 0.27 in6.9 mm
12:06 PM 54.6°F12.6°C 52.9°F11.6°C 94% 11.0 mph N17.7 kmh N 12.0 mph19.3 kmh 30.05 in1017.6 mb 0.00 in0.0 mm 0.00 in0.0 mm 0.27 in6.9 mm
12:01 PM 54.6°F12.6°C 52.9°F11.6°C 94% 4.0 mph NNE6.4 kmh NNE 12.0 mph19.3 kmh 30.05 in1017.6 mb 0.00 in0.0 mm 0.00 in0.0 mm 0.27 in6.9 mm
11:56 AM 54.6°F12.6°C 52.9°F11.6°C 94% 3.0 mph NNE4.8 kmh NNE 12.0 mph19.3 kmh 30.05 in1017.6 mb 0.00 in0.0 mm 0.00 in0.0 mm 0.27 in6.9 mm
11:51 AM 54.4°F12.4°C 52.7°F11.5°C 94% 5.0 mph NE8.0 kmh NE 12.0 mph19.3 kmh 30.05 in1017.6 mb 0.00 in0.0 mm 0.00 in0.0 mm 0.27 in6.9 mm
11:46 AM 54.6°F12.6°C 52.9°F11.6°C 94% 2.0 mph NNE3.2 kmh NNE 11.0 mph17.7 kmh 30.06 in1017.9 mb 0.00 in0.0 mm 0.00 in0.0 mm 0.27 in6.9 mm
11:41 AM 54.5°F12.5°C 52.8°F11.6°C 94% 1.0 mph NE1.6 kmh NE 12.0 mph19.3 kmh 30.06 in1017.9 mb 0.00 in0.0 mm 0.00 in0.0 mm 0.27 in6.9 mm
11:36 AM 54.4°F12.4°C 52.7°F11.5°C 94% 2.0 mph N3.2 kmh N 12.0 mph19.3 kmh 30.06 in1017.9 mb 0.00 in0.0 mm 0.00 in0.0 mm 0.27 in6.9 mm
11:31 AM 54.3°F12.4°C 52.6°F11.4°C 94% 4.0 mph NE6.4 kmh NE 12.0 mph19.3 kmh 30.06 in1017.9 mb 0.00 in0.0 mm 0.00 in0.0 mm 0.27 in6.9 mm
11:26 AM 54.2°F12.3°C 52.5°F11.4°C 94% 6.0 mph NE9.7 kmh NE 12.0 mph19.3 kmh 30.06 in1017.9 mb 0.00 in0.0 mm 0.00 in0.0 mm 0.27 in6.9 mm
11:21 AM 54.2°F12.3°C 52.5°F11.4°C 94% 1.0 mph E1.6 kmh E 11.0 mph17.7 kmh 30.05 in1017.6 mb 0.00 in0.0 mm 0.00 in0.0 mm 0.27 in6.9 mm
11:16 AM 54.0°F12.2°C 52.3°F11.3°C 94% 7.0 mph NE11.3 kmh NE 11.0 mph17.7 kmh 30.05 in1017.6 mb 0.00 in0.0 mm 0.00 in0.0 mm 0.27 in6.9 mm
11:11 AM 53.8°F12.1°C 52.1°F11.2°C 94% 2.0 mph ENE3.2 kmh ENE 11.0 mph17.7 kmh 30.05 in1017.6 mb 0.00 in0.0 mm 0.00 in0.0 mm 0.27 in6.9 mm
11:06 AM 53.7°F12.1°C 52.0°F11.1°C 94% 1.0 mph ENE1.6 kmh ENE 11.0 mph17.7 kmh 30.05 in1017.6 mb 0.00 in0.0 mm 0.00 in0.0 mm 0.27 in6.9 mm
11:01 AM 53.7°F12.1°C 52.0°F11.1°C 94% 1.0 mph N1.6 kmh N 10.0 mph16.1 kmh 30.05 in1017.6 mb 0.00 in0.0 mm 0.00 in0.0 mm 0.27 in6.9 mm
10:56 AM 53.5°F11.9°C 51.8°F11.0°C 94% Calm Calm 14.0 mph22.5 kmh 30.05 in1017.6 mb 0.00 in0.0 mm 0.00 in0.0 mm 0.27 in6.9 mm
10:51 AM 53.4°F11.9°C 51.7°F10.9°C 94% 4.0 mph E6.4 kmh E 14.0 mph22.5 kmh 30.06 in1017.9 mb 0.00 in0.0 mm 0.00 in0.0 mm 0.27 in6.9 mm
10:46 AM 53.3°F11.8°C 51.6°F10.9°C 94% 8.0 mph NE12.9 kmh NE 14.0 mph22.5 kmh 30.05 in1017.6 mb 0.00 in0.0 mm 0.00 in0.0 mm 0.27 in6.9 mm
10:41 AM 53.3°F11.8°C 51.6°F10.9°C 94% 3.0 mph ENE4.8 kmh ENE 14.0 mph22.5 kmh 30.05 in1017.6 mb 0.00 in0.0 mm 0.00 in0.0 mm 0.27 in6.9 mm
10:36 AM 53.4°F11.9°C 51.7°F10.9°C 94% 1.0 mph NE1.6 kmh NE 13.0 mph20.9 kmh 30.05 in1017.6 mb 0.00 in0.0 mm 0.00 in0.0 mm 0.27 in6.9 mm
10:31 AM 53.2°F11.8°C 51.5°F10.8°C 94% 9.0 mph NE14.5 kmh NE 13.0 mph20.9 kmh 30.05 in1017.6 mb 0.04 in1.0 mm 0.00 in0.0 mm 0.27 in6.9 mm
10:26 AM 53.0°F11.7°C 51.3°F10.7°C 94% 4.0 mph NE6.4 kmh NE 13.0 mph20.9 kmh 30.06 in1017.9 mb 0.06 in1.5 mm 0.00 in0.0 mm 0.27 in6.9 mm
10:21 AM 52.9°F11.6°C 51.2°F10.7°C 94% 1.0 mph NE1.6 kmh NE 11.0 mph17.7 kmh 30.05 in1017.6 mb 0.08 in2.0 mm 0.00 in0.0 mm 0.27 in6.9 mm
10:16 AM 52.8°F11.6°C 51.1°F10.6°C 94% 1.0 mph 1.6 kmh 12.0 mph19.3 kmh 30.06 in1017.9 mb 0.16 in4.1 mm 1.08 in27.4 mm 0.26 in6.6 mm
10:11 AM 52.7°F11.5°C 50.7°F10.4°C 93% 3.0 mph NE4.8 kmh NE 12.0 mph19.3 kmh 30.06 in1017.9 mb 0.07 in1.8 mm 0.84 in21.3 mm 0.24 in6.1 mm
10:06 AM 52.7°F11.5°C 50.7°F10.4°C 93% 3.0 mph NNE4.8 kmh NNE 12.0 mph19.3 kmh 30.06 in1017.9 mb 0.00 in0.0 mm 0.00 in0.0 mm 0.24 in6.1 mm
10:01 AM 52.7°F11.5°C 50.7°F10.4°C 93% 2.0 mph NE3.2 kmh NE 12.0 mph19.3 kmh 30.05 in1017.6 mb 0.00 in0.0 mm 0.00 in0.0 mm 0.23 in5.8 mm
09:56 AM 52.7°F11.5°C 50.7°F10.4°C 93% 2.0 mph NE3.2 kmh NE 12.0 mph19.3 kmh 30.05 in1017.6 mb 0.00 in0.0 mm 0.00 in0.0 mm 0.23 in5.8 mm
09:51 AM 52.7°F11.5°C 50.7°F10.4°C 93% 1.0 mph NNE1.6 kmh NNE 12.0 mph19.3 kmh 30.05 in1017.6 mb 0.00 in0.0 mm 0.00 in0.0 mm 0.23 in5.8 mm
09:46 AM 52.7°F11.5°C 50.7°F10.4°C 93% 2.0 mph 3.2 kmh 15.0 mph24.1 kmh 30.05 in1017.6 mb 0.00 in0.0 mm 0.00 in0.0 mm 0.23 in5.8 mm
09:41 AM 52.6°F11.4°C 50.6°F10.3°C 93% 3.0 mph E4.8 kmh E 15.0 mph24.1 kmh 30.05 in1017.6 mb 0.00 in0.0 mm 0.00 in0.0 mm 0.23 in5.8 mm
09:36 AM 52.7°F11.5°C 50.7°F10.4°C 93% 3.0 mph NNE4.8 kmh NNE 18.0 mph29.0 kmh 30.05 in1017.6 mb 0.00 in0.0 mm 0.00 in0.0 mm 0.23 in5.8 mm
09:31 AM 52.8°F11.6°C 51.1°F10.6°C 94% 2.0 mph NE3.2 kmh NE 18.0 mph29.0 kmh 30.05 in1017.6 mb 0.00 in0.0 mm 0.00 in0.0 mm 0.23 in5.8 mm
09:26 AM 52.9°F11.6°C 51.2°F10.7°C 94% 1.0 mph ENE1.6 kmh ENE 18.0 mph29.0 kmh 30.05 in1017.6 mb 0.00 in0.0 mm 0.00 in0.0 mm 0.23 in5.8 mm
09:21 AM 52.8°F11.6°C 51.1°F10.6°C 94% 10.0 mph N16.1 kmh N 18.0 mph29.0 kmh 30.05 in1017.6 mb 0.00 in0.0 mm 0.00 in0.0 mm 0.23 in5.8 mm
09:16 AM 52.8°F11.6°C 51.1°F10.6°C 94% 6.0 mph N9.7 kmh N 12.0 mph19.3 kmh 30.05 in1017.6 mb 0.00 in0.0 mm 0.00 in0.0 mm 0.23 in5.8 mm
09:11 AM 52.8°F11.6°C 51.1°F10.6°C 94% Calm Calm 12.0 mph19.3 kmh 30.05 in1017.6 mb 0.00 in0.0 mm 0.00 in0.0 mm 0.23 in5.8 mm
09:06 AM 52.7°F11.5°C 51.0°F10.6°C 94% 5.0 mph N8.0 kmh N 11.0 mph17.7 kmh 30.05 in1017.6 mb 0.00 in0.0 mm 0.00 in0.0 mm 0.23 in5.8 mm
09:01 AM 52.6°F11.4°C 50.9°F10.5°C 94% 5.0 mph NNW8.0 kmh NNW 11.0 mph17.7 kmh 30.05 in1017.6 mb 0.00 in0.0 mm 0.00 in0.0 mm 0.23 in5.8 mm
08:56 AM 52.5°F11.4°C 50.8°F10.4°C 94% 2.0 mph N3.2 kmh N 11.0 mph17.7 kmh 30.06 in1017.9 mb 0.00 in0.0 mm 0.00 in0.0 mm 0.23 in5.8 mm
08:51 AM 52.6°F11.4°C 50.9°F10.5°C 94% 7.0 mph NE11.3 kmh NE 14.0 mph22.5 kmh 30.06 in1017.9 mb 0.00 in0.0 mm 0.00 in0.0 mm 0.23 in5.8 mm
08:46 AM 52.5°F11.4°C 50.8°F10.4°C 94% 2.0 mph NE3.2 kmh NE 14.0 mph22.5 kmh 30.06 in1017.9 mb 0.00 in0.0 mm 0.00 in0.0 mm 0.23 in5.8 mm
08:41 AM 52.4°F11.3°C 50.7°F10.4°C 94% 3.0 mph NE4.8 kmh NE 14.0 mph22.5 kmh 30.06 in1017.9 mb 0.00 in0.0 mm 0.00 in0.0 mm 0.23 in5.8 mm
08:36 AM 52.5°F11.4°C 50.8°F10.4°C 94% Calm Calm 14.0 mph22.5 kmh 30.06 in1017.9 mb 0.00 in0.0 mm 0.00 in0.0 mm 0.23 in5.8 mm
08:31 AM 52.4°F11.3°C 50.7°F10.4°C 94% 2.0 mph NE3.2 kmh NE 13.0 mph20.9 kmh 30.06 in1017.9 mb 0.00 in0.0 mm 0.00 in0.0 mm 0.23 in5.8 mm
08:26 AM 52.2°F11.2°C 50.5°F10.3°C 94% 1.0 mph NE1.6 kmh NE 13.0 mph20.9 kmh 30.06 in1017.9 mb 0.00 in0.0 mm 0.00 in0.0 mm 0.23 in5.8 mm
08:21 AM 52.1°F11.2°C 50.4°F10.2°C 94% 1.0 mph NE1.6 kmh NE 12.0 mph19.3 kmh 30.06 in1017.9 mb 0.00 in0.0 mm 0.00 in0.0 mm 0.23 in5.8 mm
08:16 AM 51.9°F11.1°C 50.2°F10.1°C 94% 3.0 mph NNE4.8 kmh NNE 12.0 mph19.3 kmh 30.06 in1017.9 mb 0.00 in0.0 mm 0.00 in0.0 mm 0.22 in5.6 mm
08:11 AM 51.9°F11.1°C 50.2°F10.1°C 94% 4.0 mph NE6.4 kmh NE 11.0 mph17.7 kmh 30.06 in1017.9 mb 0.00 in0.0 mm 0.00 in0.0 mm 0.22 in5.6 mm
08:06 AM 52.0°F11.1°C 50.3°F10.2°C 94% 6.0 mph 9.7 kmh 9.0 mph14.5 kmh 30.06 in1017.9 mb 0.00 in0.0 mm 0.00 in0.0 mm 0.22 in5.6 mm
08:01 AM 51.9°F11.1°C 50.2°F10.1°C 94% 6.0 mph NE9.7 kmh NE 10.0 mph16.1 kmh 30.06 in1017.9 mb 0.00 in0.0 mm 0.00 in0.0 mm 0.22 in5.6 mm
07:56 AM 51.8°F11.0°C 50.1°F10.1°C 94% 1.0 mph NNE1.6 kmh NNE 10.0 mph16.1 kmh 30.06 in1017.9 mb 0.00 in0.0 mm 0.00 in0.0 mm 0.21 in5.3 mm
07:51 AM 51.8°F11.0°C 50.1°F10.1°C 94% 3.0 mph NE4.8 kmh NE 14.0 mph22.5 kmh 30.06 in1017.9 mb 0.00 in0.0 mm 0.00 in0.0 mm 0.21 in5.3 mm
07:46 AM 51.7°F10.9°C 50.0°F10.0°C 94% 4.0 mph N6.4 kmh N 14.0 mph22.5 kmh 30.06 in1017.9 mb 0.00 in0.0 mm 0.00 in0.0 mm 0.21 in5.3 mm
07:41 AM 51.6°F10.9°C 49.9°F9.9°C 94% 4.0 mph N6.4 kmh N 14.0 mph22.5 kmh 30.07 in1018.3 mb 0.03 in0.8 mm 0.00 in0.0 mm 0.21 in5.3 mm
07:36 AM 51.4°F10.8°C 49.7°F9.8°C 94% Calm Calm 14.0 mph22.5 kmh 30.07 in1018.3 mb 0.06 in1.5 mm 0.00 in0.0 mm 0.21 in5.3 mm
07:31 AM 51.3°F10.7°C 49.6°F9.8°C 94% 3.0 mph NE4.8 kmh NE 9.0 mph14.5 kmh 30.06 in1017.9 mb 0.10 in2.5 mm 1.20 in30.5 mm 0.21 in5.3 mm
07:26 AM 51.2°F10.7°C 49.5°F9.7°C 94% 1.0 mph NNE1.6 kmh NNE 9.0 mph14.5 kmh 30.06 in1017.9 mb 0.00 in0.0 mm 0.00 in0.0 mm 0.20 in5.1 mm
07:21 AM 51.1°F10.6°C 49.4°F9.7°C 94% 7.0 mph NE11.3 kmh NE 10.0 mph16.1 kmh 30.06 in1017.9 mb 0.00 in0.0 mm 0.00 in0.0 mm 0.20 in5.1 mm
07:16 AM 51.0°F10.6°C 49.3°F9.6°C 94% Calm Calm 10.0 mph16.1 kmh 30.07 in1018.3 mb 0.03 in0.8 mm 0.00 in0.0 mm 0.20 in5.1 mm
07:11 AM 50.8°F10.4°C 49.1°F9.5°C 94% Calm Calm 10.0 mph16.1 kmh 30.06 in1017.9 mb 0.05 in1.3 mm 0.00 in0.0 mm 0.20 in5.1 mm
07:06 AM 50.8°F10.4°C 49.1°F9.5°C 94% 2.0 mph NE3.2 kmh NE 10.0 mph16.1 kmh 30.06 in1017.9 mb 0.08 in2.0 mm 0.00 in0.0 mm 0.20 in5.1 mm
07:01 AM 50.6°F10.3°C 48.9°F9.4°C 94% 5.0 mph NE8.0 kmh NE 9.0 mph14.5 kmh 30.06 in1017.9 mb 0.08 in2.0 mm 0.09 in2.3 mm 0.19 in4.8 mm
06:56 AM 50.6°F10.3°C 48.9°F9.4°C 94% 3.0 mph NE4.8 kmh NE 8.0 mph12.9 kmh 30.06 in1017.9 mb 0.00 in0.0 mm 0.00 in0.0 mm 0.19 in4.8 mm
06:51 AM 50.5°F10.3°C 48.8°F9.3°C 94% 2.0 mph NE3.2 kmh NE 8.0 mph12.9 kmh 30.06 in1017.9 mb 0.03 in0.8 mm 0.00 in0.0 mm 0.18 in4.6 mm
06:46 AM 50.4°F10.2°C 48.7°F9.3°C 94% 2.0 mph NE3.2 kmh NE 8.0 mph12.9 kmh 30.06 in1017.9 mb 0.05 in1.3 mm 0.00 in0.0 mm 0.18 in4.6 mm
06:41 AM 50.3°F10.2°C 48.6°F9.2°C 94% 3.0 mph NE4.8 kmh NE 9.0 mph14.5 kmh 30.06 in1017.9 mb 0.10 in2.5 mm 0.12 in3.0 mm 0.18 in4.6 mm
06:36 AM 50.4°F10.2°C 48.7°F9.3°C 94% Calm Calm 9.0 mph14.5 kmh 30.06 in1017.9 mb 0.09 in2.3 mm 0.36 in9.1 mm 0.17 in4.3 mm
06:31 AM 50.4°F10.2°C 48.7°F9.3°C 94% 2.0 mph NNW3.2 kmh NNW 9.0 mph14.5 kmh 30.05 in1017.6 mb 0.06 in1.5 mm 0.00 in0.0 mm 0.17 in4.3 mm
06:26 AM 50.4°F10.2°C 48.7°F9.3°C 94% 3.0 mph NE4.8 kmh NE 9.0 mph14.5 kmh 30.06 in1017.9 mb 0.06 in1.5 mm 0.00 in0.0 mm 0.16 in4.1 mm
06:21 AM 50.4°F10.2°C 48.7°F9.3°C 94% 2.0 mph NE3.2 kmh NE 7.0 mph11.3 kmh 30.06 in1017.9 mb 0.09 in2.3 mm 0.00 in0.0 mm 0.16 in4.1 mm
06:16 AM 50.3°F10.2°C 48.6°F9.2°C 94% 3.0 mph NE4.8 kmh NE 8.0 mph12.9 kmh 30.06 in1017.9 mb 0.16 in4.1 mm 0.84 in21.3 mm 0.15 in3.8 mm
06:11 AM 50.3°F10.2°C 48.6°F9.2°C 94% Calm Calm 8.0 mph12.9 kmh 30.06 in1017.9 mb 0.09 in2.3 mm 0.00 in0.0 mm 0.13 in3.3 mm
06:06 AM 50.2°F10.1°C 48.3°F9.1°C 93% 4.0 mph NNE6.4 kmh NNE 8.0 mph12.9 kmh 30.06 in1017.9 mb 0.27 in6.9 mm 0.36 in9.1 mm 0.13 in3.3 mm
06:01 AM 50.2°F10.1°C 48.3°F9.1°C 93% 1.0 mph 1.6 kmh 8.0 mph12.9 kmh 30.06 in1017.9 mb 0.24 in6.1 mm 0.22 in5.6 mm 0.11 in2.8 mm
05:56 AM 50.2°F10.1°C 48.3°F9.1°C 93% 1.0 mph NNE1.6 kmh NNE 7.0 mph11.3 kmh 30.07 in1018.3 mb 0.04 in1.0 mm 0.00 in0.0 mm 0.10 in2.5 mm
05:51 AM 50.2°F10.1°C 48.3°F9.1°C 93% 2.0 mph N3.2 kmh N 7.0 mph11.3 kmh 30.07 in1018.3 mb 0.04 in1.0 mm 0.48 in12.2 mm 0.10 in2.5 mm
05:46 AM 50.1°F10.1°C 48.2°F9.0°C 93% 5.0 mph NNW8.0 kmh NNW 9.0 mph14.5 kmh 30.07 in1018.3 mb 0.00 in0.0 mm 0.00 in0.0 mm 0.09 in2.3 mm
05:41 AM 50.1°F10.1°C 48.2°F9.0°C 93% 3.0 mph N4.8 kmh N 9.0 mph14.5 kmh 30.07 in1018.3 mb 0.00 in0.0 mm 0.00 in0.0 mm 0.09 in2.3 mm
05:36 AM 50.1°F10.1°C 48.2°F9.0°C 93% 4.0 mph NE6.4 kmh NE 9.0 mph14.5 kmh 30.07 in1018.3 mb 0.03 in0.8 mm 0.00 in0.0 mm 0.09 in2.3 mm
05:31 AM 50.1°F10.1°C 48.2°F9.0°C 93% Calm Calm 9.0 mph14.5 kmh 30.07 in1018.3 mb 0.04 in1.0 mm 0.00 in0.0 mm 0.09 in2.3 mm
05:26 AM 50.0°F10.0°C 48.1°F8.9°C 93% 9.0 mph N14.5 kmh N 9.0 mph14.5 kmh 30.07 in1018.3 mb 0.05 in1.3 mm 0.00 in0.0 mm 0.09 in2.3 mm
05:21 AM 50.0°F10.0°C 48.1°F8.9°C 93% Calm Calm 8.0 mph12.9 kmh 30.07 in1018.3 mb 0.05 in1.3 mm 0.60 in15.2 mm 0.08 in2.0 mm
05:16 AM 49.9°F9.9°C 48.0°F8.9°C 93% Calm Calm 8.0 mph12.9 kmh 30.07 in1018.3 mb 0.00 in0.0 mm 0.00 in0.0 mm 0.08 in2.0 mm
05:11 AM 49.9°F9.9°C 48.0°F8.9°C 93% Calm Calm 8.0 mph12.9 kmh 30.07 in1018.3 mb 0.00 in0.0 mm 0.00 in0.0 mm 0.08 in2.0 mm
05:06 AM 49.9°F9.9°C 48.0°F8.9°C 93% 1.0 mph N1.6 kmh N 8.0 mph12.9 kmh 30.08 in1018.6 mb 0.00 in0.0 mm 0.00 in0.0 mm 0.07 in1.8 mm
05:01 AM 49.9°F9.9°C 48.0°F8.9°C 93% 2.0 mph NW3.2 kmh NW 8.0 mph12.9 kmh 30.07 in1018.3 mb 0.00 in0.0 mm 0.00 in0.0 mm 0.07 in1.8 mm
04:56 AM 49.9°F9.9°C 48.0°F8.9°C 93% 6.0 mph 9.7 kmh 8.0 mph12.9 kmh 30.08 in1018.6 mb 0.00 in0.0 mm 0.00 in0.0 mm 0.07 in1.8 mm
04:51 AM 49.9°F9.9°C 48.0°F8.9°C 93% 3.0 mph N4.8 kmh N 7.0 mph11.3 kmh 30.07 in1018.3 mb 0.00 in0.0 mm 0.00 in0.0 mm 0.07 in1.8 mm
04:46 AM 49.8°F9.9°C 47.9°F8.8°C 93% Calm Calm 10.0 mph16.1 kmh 30.07 in1018.3 mb 0.04 in1.0 mm 0.00 in0.0 mm 0.07 in1.8 mm
04:41 AM 49.8°F9.9°C 47.9°F8.8°C 93% 6.0 mph NNE9.7 kmh NNE 10.0 mph16.1 kmh 30.07 in1018.3 mb 0.06 in1.5 mm 0.00 in0.0 mm 0.07 in1.8 mm
04:36 AM 49.8°F9.9°C 47.6°F8.7°C 92% 3.0 mph NNW4.8 kmh NNW 10.0 mph16.1 kmh 30.07 in1018.3 mb 0.09 in2.3 mm 0.12 in3.0 mm 0.07 in1.8 mm
04:31 AM 49.7°F9.8°C 47.8°F8.8°C 93% 4.0 mph NE6.4 kmh NE 10.0 mph16.1 kmh 30.07 in1018.3 mb 0.08 in2.0 mm 0.00 in0.0 mm 0.06 in1.5 mm
04:26 AM 49.7°F9.8°C 47.5°F8.6°C 92% 1.0 mph NE1.6 kmh NE 9.0 mph14.5 kmh 30.07 in1018.3 mb 0.12 in3.0 mm 0.84 in21.3 mm 0.06 in1.5 mm
04:21 AM 49.7°F9.8°C 47.5°F8.6°C 92% 5.0 mph ENE8.0 kmh ENE 9.0 mph14.5 kmh 30.07 in1018.3 mb 0.05 in1.3 mm 0.60 in15.2 mm 0.05 in1.3 mm
04:16 AM 49.7°F9.8°C 47.5°F8.6°C 92% Calm Calm 10.0 mph16.1 kmh 30.07 in1018.3 mb 0.00 in0.0 mm 0.00 in0.0 mm 0.04 in1.0 mm
04:11 AM 49.7°F9.8°C 47.5°F8.6°C 92% Calm Calm 10.0 mph16.1 kmh 30.07 in1018.3 mb 0.00 in0.0 mm 0.00 in0.0 mm 0.04 in1.0 mm
04:06 AM 49.7°F9.8°C 47.5°F8.6°C 92% 2.0 mph NW3.2 kmh NW 12.0 mph19.3 kmh 30.07 in1018.3 mb 0.00 in0.0 mm 0.00 in0.0 mm 0.03 in0.8 mm
04:01 AM 49.7°F9.8°C 47.5°F8.6°C 92% 3.0 mph N4.8 kmh N 12.0 mph19.3 kmh 30.07 in1018.3 mb 0.00 in0.0 mm 0.00 in0.0 mm 0.03 in0.8 mm
03:56 AM 49.7°F9.8°C 47.5°F8.6°C 92% 7.0 mph N11.3 kmh N 12.0 mph19.3 kmh 30.07 in1018.3 mb 0.00 in0.0 mm 0.00 in0.0 mm 0.03 in0.8 mm
03:51 AM 49.6°F9.8°C 47.4°F8.6°C 92% 6.0 mph NNE9.7 kmh NNE 12.0 mph19.3 kmh 30.07 in1018.3 mb 0.00 in0.0 mm 0.00 in0.0 mm 0.03 in0.8 mm
03:46 AM 49.6°F9.8°C 47.4°F8.6°C 92% Calm Calm 10.0 mph16.1 kmh 30.07 in1018.3 mb 0.00 in0.0 mm 0.00 in0.0 mm 0.03 in0.8 mm
03:41 AM 49.6°F9.8°C 47.4°F8.6°C 92% Calm Calm 10.0 mph16.1 kmh 30.07 in1018.3 mb 0.00 in0.0 mm 0.00 in0.0 mm 0.03 in0.8 mm
03:36 AM 49.6°F9.8°C 47.4°F8.6°C 92% 3.0 mph NNE4.8 kmh NNE 10.0 mph16.1 kmh 30.07 in1018.3 mb 0.00 in0.0 mm 0.00 in0.0 mm 0.03 in0.8 mm
03:31 AM 49.6°F9.8°C 47.4°F8.6°C 92% 2.0 mph ESE3.2 kmh ESE 6.0 mph9.7 kmh 30.07 in1018.3 mb 0.00 in0.0 mm 0.00 in0.0 mm 0.03 in0.8 mm
03:26 AM 49.6°F9.8°C 47.4°F8.6°C 92% Calm Calm 9.0 mph14.5 kmh 30.07 in1018.3 mb 0.00 in0.0 mm 0.00 in0.0 mm 0.03 in0.8 mm
03:21 AM 49.6°F9.8°C 47.4°F8.6°C 92% 2.0 mph ENE3.2 kmh ENE 9.0 mph14.5 kmh 30.07 in1018.3 mb 0.00 in0.0 mm 0.00 in0.0 mm 0.03 in0.8 mm
03:16 AM 49.6°F9.8°C 47.4°F8.6°C 92% 4.0 mph NNE6.4 kmh NNE 9.0 mph14.5 kmh 30.07 in1018.3 mb 0.00 in0.0 mm 0.00 in0.0 mm 0.03 in0.8 mm
03:11 AM 49.6°F9.8°C 47.4°F8.6°C 92% 3.0 mph NNE4.8 kmh NNE 9.0 mph14.5 kmh 30.07 in1018.3 mb 0.00 in0.0 mm 0.00 in0.0 mm 0.03 in0.8 mm
03:06 AM 49.6°F9.8°C 47.4°F8.6°C 92% 1.0 mph NE1.6 kmh NE 6.0 mph9.7 kmh 30.07 in1018.3 mb 0.00 in0.0 mm 0.00 in0.0 mm 0.03 in0.8 mm
03:01 AM 49.6°F9.8°C 47.4°F8.6°C 92% Calm Calm 2.0 mph3.2 kmh 30.07 in1018.3 mb 0.00 in0.0 mm 0.00 in0.0 mm 0.03 in0.8 mm
02:56 AM 49.7°F9.8°C 47.5°F8.6°C 92% Calm Calm -- 30.07 in1018.3 mb 0.00 in0.0 mm 0.00 in0.0 mm 0.03 in0.8 mm
02:51 AM 49.7°F9.8°C 47.5°F8.6°C 92% Calm Calm 7.0 mph11.3 kmh 30.07 in1018.3 mb 0.00 in0.0 mm 0.00 in0.0 mm 0.03 in0.8 mm
02:46 AM 49.8°F9.9°C 47.6°F8.7°C 92% Calm Calm 7.0 mph11.3 kmh 30.07 in1018.3 mb 0.00 in0.0 mm 0.00 in0.0 mm 0.03 in0.8 mm
02:41 AM 49.9°F9.9°C 47.7°F8.7°C 92% Calm Calm 7.0 mph11.3 kmh 30.07 in1018.3 mb 0.00 in0.0 mm 0.00 in0.0 mm 0.03 in0.8 mm
02:36 AM 49.9°F9.9°C 47.7°F8.7°C 92% 2.0 mph NNW3.2 kmh NNW 10.0 mph16.1 kmh 30.07 in1018.3 mb 0.00 in0.0 mm 0.00 in0.0 mm 0.03 in0.8 mm
02:31 AM 50.0°F10.0°C 47.8°F8.8°C 92% 2.0 mph NE3.2 kmh NE 10.0 mph16.1 kmh 30.07 in1018.3 mb 0.00 in0.0 mm 0.00 in0.0 mm 0.03 in0.8 mm
02:26 AM 50.0°F10.0°C 47.8°F8.8°C 92% 3.0 mph N4.8 kmh N 10.0 mph16.1 kmh 30.08 in1018.6 mb 0.00 in0.0 mm 0.00 in0.0 mm 0.03 in0.8 mm
02:21 AM 50.1°F10.1°C 47.9°F8.8°C 92% 1.0 mph NNW1.6 kmh NNW 10.0 mph16.1 kmh 30.07 in1018.3 mb 0.00 in0.0 mm 0.00 in0.0 mm 0.03 in0.8 mm
02:16 AM 50.2°F10.1°C 48.0°F8.9°C 92% 2.0 mph N3.2 kmh N 6.0 mph9.7 kmh 30.07 in1018.3 mb 0.00 in0.0 mm 0.00 in0.0 mm 0.03 in0.8 mm
02:11 AM 50.3°F10.2°C 48.1°F8.9°C 92% Calm Calm 14.0 mph22.5 kmh 30.07 in1018.3 mb 0.00 in0.0 mm 0.00 in0.0 mm 0.03 in0.8 mm
02:06 AM 50.3°F10.2°C 48.1°F8.9°C 92% 1.0 mph NE1.6 kmh NE 14.0 mph22.5 kmh 30.07 in1018.3 mb 0.00 in0.0 mm 0.00 in0.0 mm 0.03 in0.8 mm
02:01 AM 50.3°F10.2°C 48.1°F8.9°C 92% 1.0 mph NW1.6 kmh NW 14.0 mph22.5 kmh 30.07 in1018.3 mb 0.00 in0.0 mm 0.00 in0.0 mm 0.02 in0.5 mm
01:56 AM 50.4°F10.2°C 47.9°F8.8°C 91% 2.0 mph NE3.2 kmh NE 14.0 mph22.5 kmh 30.07 in1018.3 mb 0.00 in0.0 mm 0.00 in0.0 mm 0.02 in0.5 mm
01:51 AM 50.5°F10.3°C 48.0°F8.9°C 91% 3.0 mph NNE4.8 kmh NNE 7.0 mph11.3 kmh 30.07 in1018.3 mb 0.00 in0.0 mm 0.00 in0.0 mm 0.02 in0.5 mm
01:46 AM 50.6°F10.3°C 48.1°F8.9°C 91% 1.0 mph NE1.6 kmh NE 6.0 mph9.7 kmh 30.07 in1018.3 mb 0.00 in0.0 mm 0.00 in0.0 mm 0.02 in0.5 mm
01:41 AM 50.7°F10.4°C 48.2°F9.0°C 91% Calm Calm 7.0 mph11.3 kmh 30.08 in1018.6 mb 0.00 in0.0 mm 0.00 in0.0 mm 0.02 in0.5 mm
01:36 AM 50.8°F10.4°C 48.3°F9.1°C 91% 4.0 mph NE6.4 kmh NE 7.0 mph11.3 kmh 30.08 in1018.6 mb 0.00 in0.0 mm 0.00 in0.0 mm 0.02 in0.5 mm
01:31 AM 50.9°F10.5°C 48.4°F9.1°C 91% 1.0 mph 1.6 kmh 9.0 mph14.5 kmh 30.08 in1018.6 mb 0.00 in0.0 mm 0.00 in0.0 mm 0.02 in0.5 mm
01:26 AM 51.0°F10.6°C 48.5°F9.2°C 91% Calm Calm 9.0 mph14.5 kmh 30.08 in1018.6 mb 0.00 in0.0 mm 0.00 in0.0 mm 0.02 in0.5 mm
01:21 AM 51.0°F10.6°C 48.5°F9.2°C 91% 1.0 mph N1.6 kmh N 8.0 mph12.9 kmh 30.08 in1018.6 mb 0.00 in0.0 mm 0.00 in0.0 mm 0.02 in0.5 mm
01:16 AM 51.0°F10.6°C 48.5°F9.2°C 91% 2.0 mph N3.2 kmh N 8.0 mph12.9 kmh 30.08 in1018.6 mb 0.00 in0.0 mm 0.00 in0.0 mm 0.02 in0.5 mm
01:11 AM 51.1°F10.6°C 48.6°F9.2°C 91% 5.0 mph NNW8.0 kmh NNW 5.0 mph8.0 kmh 30.08 in1018.6 mb 0.00 in0.0 mm 0.00 in0.0 mm 0.02 in0.5 mm
01:06 AM 51.2°F10.7°C 48.7°F9.3°C 91% Calm Calm 9.0 mph14.5 kmh 30.08 in1018.6 mb 0.00 in0.0 mm 0.00 in0.0 mm 0.02 in0.5 mm
01:01 AM 51.3°F10.7°C 48.8°F9.3°C 91% 9.0 mph NNE14.5 kmh NNE 12.0 mph19.3 kmh 30.08 in1018.6 mb 0.00 in0.0 mm 0.00 in0.0 mm 0.02 in0.5 mm
12:56 AM 51.4°F10.8°C 48.9°F9.4°C 91% 2.0 mph NW3.2 kmh NW 12.0 mph19.3 kmh 30.08 in1018.6 mb 0.00 in0.0 mm 0.00 in0.0 mm 0.02 in0.5 mm
12:51 AM 51.5°F10.8°C 48.7°F9.3°C 90% Calm Calm 12.0 mph19.3 kmh 30.09 in1019.0 mb 0.03 in0.8 mm 0.00 in0.0 mm 0.02 in0.5 mm
12:46 AM 51.7°F10.9°C 48.9°F9.4°C 90% Calm Calm 12.0 mph19.3 kmh 30.09 in1019.0 mb 0.05 in1.3 mm 0.00 in0.0 mm 0.02 in0.5 mm
12:41 AM 51.9°F11.1°C 49.1°F9.5°C 90% 1.0 mph NE1.6 kmh NE 10.0 mph16.1 kmh 30.09 in1019.0 mb 0.06 in1.5 mm 0.00 in0.0 mm 0.02 in0.5 mm
12:36 AM 52.1°F11.2°C 49.3°F9.6°C 90% Calm Calm 11.0 mph17.7 kmh 30.09 in1019.0 mb 0.06 in1.5 mm 0.72 in18.3 mm 0.02 in0.5 mm
12:31 AM 52.2°F11.2°C 49.4°F9.7°C 90% 1.0 mph NNE1.6 kmh NNE 11.0 mph17.7 kmh 30.09 in1019.0 mb 0.00 in0.0 mm 0.00 in0.0 mm 0.02 in0.5 mm
12:26 AM 52.4°F11.3°C 49.3°F9.6°C 89% 5.0 mph 8.0 kmh 11.0 mph17.7 kmh 30.10 in1019.3 mb 0.00 in0.0 mm 0.00 in0.0 mm 0.01 in0.3 mm
12:21 AM 52.6°F11.4°C 49.4°F9.7°C 89% 1.0 mph NW1.6 kmh NW 11.0 mph17.7 kmh 30.10 in1019.3 mb 0.00 in0.0 mm 0.00 in0.0 mm 0.01 in0.3 mm
12:16 AM 52.7°F11.5°C 49.5°F9.7°C 89% 1.0 mph NE1.6 kmh NE 7.0 mph11.3 kmh 30.10 in1019.3 mb 0.00 in0.0 mm 0.00 in0.0 mm 0.01 in0.3 mm
12:11 AM 52.8°F11.6°C 49.6°F9.8°C 89% 2.0 mph NNE3.2 kmh NNE 7.0 mph11.3 kmh 30.10 in1019.3 mb 0.00 in0.0 mm 0.00 in0.0 mm 0.01 in0.3 mm
12:06 AM 53.0°F11.7°C 49.5°F9.7°C 88% Calm Calm 6.0 mph9.7 kmh 30.10 in1019.3 mb 0.00 in0.0 mm 0.00 in0.0 mm 0.00 in0.0 mm
12:01 AM 53.1°F11.7°C 49.6°F9.8°C 88% 2.0 mph NE3.2 kmh NE 6.0 mph9.7 kmh 30.10 in1019.3 mb 0.00 in0.0 mm 0.00 in0.0 mm 0.00 in0.0 mm